createdAt,value
2023-03-16T08:01:41.173Z,25.00
2023-03-16T08:02:42.199Z,25.00
2023-03-16T08:03:42.213Z,25.00
2023-03-16T08:04:42.123Z,25.00
2023-03-16T08:05:41.059Z,25.00
2023-03-16T08:06:42.082Z,0.00
2023-03-16T08:07:42.112Z,0.00
2023-03-16T08:08:41.053Z,0.00
2023-03-16T08:09:42.058Z,0.00
2023-03-16T08:10:41.045Z,0.00
2023-03-16T08:11:42.038Z,0.00
2023-03-16T08:12:42.152Z,0.00
2023-03-16T08:13:42.024Z,0.00
2023-03-16T08:14:42.049Z,0.00
2023-03-16T08:15:42.061Z,0.00
2023-03-16T08:16:42.002Z,0.00
2023-03-16T08:17:42.063Z,0.00
2023-03-16T08:18:41.988Z,0.00
2023-03-16T08:19:41.974Z,0.00
2023-03-16T08:20:41.986Z,0.00
2023-03-16T08:21:57.640Z,0.00
2023-03-16T08:22:41.996Z,0.00
2023-03-16T08:23:41.948Z,0.00
2023-03-16T08:24:41.942Z,0.00
2023-03-16T08:25:41.944Z,0.00
2023-03-16T08:26:41.924Z,0.00
2023-03-16T08:27:41.937Z,0.00
2023-03-16T08:28:41.959Z,0.00
2023-03-16T08:29:41.919Z,0.00
2023-03-16T08:30:41.910Z,0.00
2023-03-16T08:31:41.001Z,0.00
2023-03-16T08:32:42.003Z,0.00
2023-03-16T08:33:41.947Z,0.00
2023-03-16T08:34:41.895Z,0.00
2023-03-16T08:35:41.936Z,0.00
2023-03-16T08:36:41.874Z,17.30
2023-03-16T08:37:41.866Z,26.40
2023-03-16T08:38:41.857Z,25.81
2023-03-16T08:39:41.847Z,25.00
2023-03-16T08:40:41.843Z,27.81
2023-03-16T08:41:41.848Z,27.55
2023-03-16T08:42:41.835Z,25.00
2023-03-16T08:43:41.827Z,26.27
2023-03-16T08:44:41.813Z,28.02
2023-03-16T08:45:41.808Z,26.36
2023-03-16T08:46:40.971Z,33.66
2023-03-16T08:47:41.794Z,25.00
2023-03-16T08:48:41.806Z,26.72
2023-03-16T08:49:40.854Z,28.35
2023-03-16T08:50:41.779Z,26.99
2023-03-16T08:51:43.822Z,35.68
2023-03-16T08:52:41.845Z,35.38
2023-03-16T08:53:40.792Z,32.42
2023-03-16T08:54:49.680Z,40.25
2023-03-16T08:55:41.851Z,36.72
2023-03-16T08:56:40.722Z,43.78
2023-03-16T08:57:40.722Z,48.12
2023-03-16T08:58:41.732Z,62.32
2023-03-16T08:59:41.712Z,75.57
2023-03-16T09:00:41.708Z,91.72
2023-03-16T09:01:41.766Z,53.43
2023-03-16T09:02:41.735Z,42.93
2023-03-16T09:03:41.684Z,50.21
2023-03-16T09:04:40.718Z,96.80
2023-03-16T09:05:41.710Z,69.29
2023-03-16T09:06:41.672Z,59.37
2023-03-16T09:07:41.675Z,57.32
2023-03-16T09:08:41.652Z,48.79
2023-03-16T09:09:41.637Z,31.72
2023-03-16T09:10:40.635Z,36.06
2023-03-16T09:11:40.619Z,28.70
2023-03-16T09:12:41.615Z,52.62
2023-03-16T09:13:41.613Z,48.49
2023-03-16T09:14:41.654Z,63.74
2023-03-16T09:15:41.597Z,82.94
2023-03-16T09:16:41.750Z,54.70
2023-03-16T09:17:41.609Z,33.21
2023-03-16T09:18:41.603Z,54.20
2023-03-16T09:19:51.254Z,32.96
2023-03-16T09:20:41.621Z,0.00
2023-03-16T09:21:41.626Z,0.00
2023-03-16T09:22:40.574Z,0.00
2023-03-16T09:23:41.577Z,0.00
2023-03-16T09:24:40.594Z,0.00
2023-03-16T09:25:40.556Z,0.00
2023-03-16T09:26:41.588Z,0.00
2023-03-16T09:27:41.573Z,0.00
2023-03-16T09:28:42.427Z,0.00
2023-03-16T09:29:41.529Z,0.00
2023-03-16T09:30:41.530Z,0.00
2023-03-16T09:31:41.611Z,0.00
2023-03-16T09:32:41.579Z,0.00
2023-03-16T09:33:41.502Z,0.00
2023-03-16T09:34:40.495Z,0.00
2023-03-16T09:35:41.565Z,0.00
2023-03-16T09:36:41.479Z,0.00
2023-03-16T09:37:45.585Z,31.30
2023-03-16T09:38:41.495Z,1.75
2023-03-16T09:39:41.463Z,1.73
2023-03-16T09:40:41.484Z,0.00
2023-03-16T09:41:40.439Z,0.00
2023-03-16T09:42:41.824Z,0.00
2023-03-16T09:43:41.426Z,0.00
2023-03-16T09:44:41.417Z,0.00
2023-03-16T09:45:41.505Z,0.00
2023-03-16T09:46:41.408Z,27.43
2023-03-16T09:47:41.424Z,43.21
2023-03-16T09:48:41.391Z,64.32
2023-03-16T09:49:40.393Z,31.80
2023-03-16T09:50:48.811Z,51.14
2023-03-16T09:51:41.406Z,52.23
2023-03-16T09:52:41.366Z,33.91
2023-03-16T09:53:41.409Z,54.64
2023-03-16T09:54:41.358Z,19.15
2023-03-16T09:55:41.339Z,0.00
2023-03-16T09:56:41.349Z,0.00
2023-03-16T09:57:41.336Z,0.00
2023-03-16T09:58:41.837Z,94.63
2023-03-16T09:59:41.315Z,157.26
2023-03-16T10:00:41.426Z,182.96
2023-03-16T10:01:40.324Z,219.63
2023-03-16T10:02:41.294Z,222.51
2023-03-16T10:03:41.311Z,228.15
2023-03-16T10:04:41.282Z,241.08
2023-03-16T10:05:41.282Z,250.00
2023-03-16T10:06:41.270Z,246.52
2023-03-16T10:07:40.296Z,248.27
2023-03-16T10:08:40.266Z,248.89
2023-03-16T10:09:41.280Z,243.23
2023-03-16T10:10:41.303Z,241.71
2023-03-16T10:11:41.250Z,249.98
2023-03-16T10:12:41.238Z,247.56
2023-03-16T10:13:41.219Z,250.00
2023-03-16T10:14:41.300Z,250.00
2023-03-16T10:15:40.213Z,238.50
2023-03-16T10:16:41.315Z,230.81
2023-03-16T10:17:41.182Z,226.85
2023-03-16T10:18:41.182Z,237.25
2023-03-16T10:19:41.184Z,231.23
2023-03-16T10:20:41.189Z,231.49
2023-03-16T10:21:40.186Z,237.04
2023-03-16T10:22:40.177Z,243.59
2023-03-16T10:23:40.996Z,240.71
2023-03-16T10:24:41.185Z,243.51
2023-03-16T10:25:41.162Z,243.79
2023-03-16T10:26:41.135Z,242.16
2023-03-16T10:27:41.129Z,246.52
2023-03-16T10:28:41.132Z,244.46
2023-03-16T10:29:41.143Z,247.49
2023-03-16T10:30:42.921Z,249.64
2023-03-16T10:31:41.256Z,250.00
2023-03-16T10:32:41.197Z,245.20
2023-03-16T10:33:41.183Z,239.73
2023-03-16T10:34:41.165Z,240.18
2023-03-16T10:35:41.157Z,240.04
2023-03-16T10:36:41.252Z,239.15
2023-03-16T10:37:41.138Z,237.91
2023-03-16T10:38:41.128Z,238.82
2023-03-16T10:39:41.113Z,238.31
2023-03-16T10:40:41.119Z,239.12
2023-03-16T10:41:41.154Z,237.41
2023-03-16T10:42:41.113Z,239.01
2023-03-16T10:43:41.107Z,241.16
2023-03-16T10:44:41.099Z,241.93
2023-03-16T10:45:40.177Z,242.26
2023-03-16T10:46:41.258Z,237.18
2023-03-16T10:47:40.086Z,219.00
2023-03-16T10:48:41.352Z,227.92
2023-03-16T10:49:41.074Z,221.96
2023-03-16T10:50:41.066Z,228.51
2023-03-16T10:51:41.069Z,220.38
2023-03-16T10:52:41.062Z,220.24
2023-03-16T10:53:41.039Z,226.38
2023-03-16T10:54:41.073Z,235.25
2023-03-16T10:55:41.134Z,230.75
2023-03-16T10:56:41.193Z,233.42
2023-03-16T10:57:41.272Z,223.69
2023-03-16T10:58:41.313Z,223.85
2023-03-16T10:59:40.380Z,220.91
2023-03-16T11:00:41.452Z,222.70
2023-03-16T11:01:41.594Z,212.84
2023-03-16T11:02:40.564Z,213.67
2023-03-16T11:03:41.594Z,214.57
2023-03-16T11:04:41.714Z,218.60
2023-03-16T11:05:41.716Z,217.21
2023-03-16T11:06:41.799Z,217.25
2023-03-16T11:07:41.807Z,215.43
2023-03-16T11:08:41.814Z,209.48
2023-03-16T11:09:41.776Z,220.70
2023-03-16T11:10:54.611Z,218.18
2023-03-16T11:11:41.781Z,217.84
2023-03-16T11:12:41.759Z,214.92
2023-03-16T11:13:41.800Z,213.88
2023-03-16T11:14:41.769Z,217.09
2023-03-16T11:15:41.748Z,219.85
2023-03-16T11:16:41.803Z,220.39
2023-03-16T11:17:41.770Z,212.05
2023-03-16T11:18:41.749Z,208.22
2023-03-16T11:19:40.855Z,200.08
2023-03-16T11:20:41.712Z,199.26
2023-03-16T11:21:41.758Z,200.87
2023-03-16T11:22:40.744Z,200.81
2023-03-16T11:23:41.708Z,198.98
2023-03-16T11:24:41.703Z,195.99
2023-03-16T11:25:41.687Z,201.91
2023-03-16T11:26:41.676Z,206.36
2023-03-16T11:27:41.709Z,210.03
2023-03-16T11:28:40.675Z,204.50
2023-03-16T11:29:41.694Z,207.88
2023-03-16T11:30:41.660Z,195.49
2023-03-16T11:31:41.677Z,204.85
2023-03-16T11:32:41.712Z,197.11
2023-03-16T11:33:40.645Z,198.98
2023-03-16T11:34:41.669Z,197.93
2023-03-16T11:35:52.713Z,200.67
2023-03-16T11:36:41.629Z,200.85
2023-03-16T11:37:40.598Z,202.36
2023-03-16T11:38:41.603Z,204.60
2023-03-16T11:39:41.620Z,200.15
2023-03-16T11:40:40.596Z,187.88
2023-03-16T11:41:41.582Z,161.51
2023-03-16T11:42:41.577Z,189.93
2023-03-16T11:43:41.888Z,200.39
2023-03-16T11:44:41.595Z,195.41
2023-03-16T11:45:41.579Z,194.41
2023-03-16T11:46:40.542Z,200.43
2023-03-16T11:47:41.539Z,198.36
2023-03-16T11:48:41.555Z,206.64
2023-03-16T11:49:41.523Z,208.61
2023-03-16T11:50:41.516Z,206.69
2023-03-16T11:51:42.357Z,203.94
2023-03-16T11:52:40.493Z,209.60
2023-03-16T11:53:41.520Z,204.38
2023-03-16T11:54:41.506Z,204.63
2023-03-16T11:55:41.488Z,206.33
2023-03-16T11:56:41.471Z,202.51
2023-03-16T11:57:40.455Z,205.49
2023-03-16T11:58:40.457Z,204.68
2023-03-16T11:59:46.241Z,205.23
2023-03-16T12:00:41.447Z,205.48
2023-03-16T12:01:45.281Z,206.05
2023-03-16T12:02:41.565Z,205.66
2023-03-16T12:03:41.595Z,206.76
2023-03-16T12:04:41.429Z,207.17
2023-03-16T12:05:41.396Z,208.03
2023-03-16T12:06:40.412Z,205.45
2023-03-16T12:07:40.389Z,206.05
2023-03-16T12:08:41.400Z,205.96
2023-03-16T12:09:41.413Z,206.33
2023-03-16T12:10:41.366Z,205.57
2023-03-16T12:11:42.064Z,204.17
2023-03-16T12:12:41.364Z,204.21
2023-03-16T12:13:41.366Z,206.43
2023-03-16T12:14:41.337Z,208.71
2023-03-16T12:15:41.337Z,205.99
2023-03-16T12:16:49.133Z,202.42
2023-03-16T12:17:41.343Z,202.61
2023-03-16T12:18:41.329Z,203.23
2023-03-16T12:19:41.314Z,202.61
2023-03-16T12:20:41.300Z,205.08
2023-03-16T12:21:41.286Z,206.10
2023-03-16T12:22:41.293Z,200.04
2023-03-16T12:23:40.282Z,201.48
2023-03-16T12:24:40.287Z,200.55
2023-03-16T12:25:41.273Z,198.28
2023-03-16T12:26:41.266Z,198.25
2023-03-16T12:27:41.258Z,200.95
2023-03-16T12:28:41.253Z,202.43
2023-03-16T12:29:41.256Z,199.47
2023-03-16T12:30:41.258Z,204.26
2023-03-16T12:31:41.321Z,196.10
2023-03-16T12:32:41.228Z,196.06
2023-03-16T12:33:41.254Z,200.63
2023-03-16T12:34:41.214Z,197.68
2023-03-16T12:35:41.323Z,201.12
2023-03-16T12:36:41.207Z,194.96
2023-03-16T12:37:41.200Z,194.13
2023-03-16T12:38:41.408Z,192.26
2023-03-16T12:39:40.178Z,189.66
2023-03-16T12:40:41.191Z,195.12
2023-03-16T12:41:41.180Z,193.75
2023-03-16T12:42:41.154Z,194.33
2023-03-16T12:43:41.422Z,194.97
2023-03-16T12:44:41.146Z,191.72
2023-03-16T12:45:40.169Z,194.64
2023-03-16T12:46:41.867Z,190.80
2023-03-16T12:47:41.111Z,193.97
2023-03-16T12:48:41.142Z,190.96
2023-03-16T12:49:41.129Z,192.20
2023-03-16T12:50:41.104Z,196.30
2023-03-16T12:51:41.086Z,193.40
2023-03-16T12:52:41.156Z,191.91
2023-03-16T12:53:40.102Z,196.03
2023-03-16T12:54:40.073Z,193.99
2023-03-16T12:55:41.071Z,196.71
2023-03-16T12:56:40.057Z,191.54
2023-03-16T12:57:41.059Z,193.62
2023-03-16T12:58:41.044Z,195.58
2023-03-16T12:59:41.047Z,194.62
2023-03-16T13:00:41.101Z,192.91
2023-03-16T13:01:41.034Z,191.88
2023-03-16T13:02:40.027Z,192.93
2023-03-16T13:03:41.039Z,192.36
2023-03-16T13:04:41.054Z,195.28
2023-03-16T13:05:41.042Z,197.47
2023-03-16T13:06:41.005Z,193.96
2023-03-16T13:07:41.001Z,195.59
2023-03-16T13:08:41.001Z,195.78
2023-03-16T13:09:40.989Z,194.46
2023-03-16T13:10:40.970Z,193.69
2023-03-16T13:11:39.991Z,195.98
2023-03-16T13:12:41.023Z,196.74
2023-03-16T13:13:41.056Z,191.73
2023-03-16T13:14:41.077Z,190.08
2023-03-16T13:15:41.101Z,192.71
2023-03-16T13:16:41.257Z,193.41
2023-03-16T13:17:41.251Z,192.80
2023-03-16T13:18:41.200Z,190.49
2023-03-16T13:19:41.266Z,192.42
2023-03-16T13:20:41.267Z,193.27
2023-03-16T13:21:40.301Z,192.23
2023-03-16T13:22:40.320Z,192.13
2023-03-16T13:23:41.363Z,188.65
2023-03-16T13:24:41.385Z,194.21
2023-03-16T13:25:41.420Z,189.60
2023-03-16T13:26:41.461Z,190.31
2023-03-16T13:27:40.480Z,192.56
2023-03-16T13:28:41.536Z,193.29
2023-03-16T13:29:40.553Z,193.64
2023-03-16T13:30:40.630Z,196.68
2023-03-16T13:31:41.733Z,193.12
2023-03-16T13:32:41.686Z,192.02
2023-03-16T13:33:41.663Z,193.08
2023-03-16T13:34:40.690Z,194.75
2023-03-16T13:35:41.794Z,193.24
2023-03-16T13:36:41.770Z,195.63
2023-03-16T13:37:41.842Z,196.72
2023-03-16T13:38:40.796Z,193.85
2023-03-16T13:39:41.824Z,196.58
2023-03-16T13:40:41.849Z,194.60
2023-03-16T13:41:43.518Z,200.06
2023-03-16T13:42:42.145Z,196.12
2023-03-16T13:43:42.157Z,199.52
2023-03-16T13:44:42.169Z,197.14
2023-03-16T13:45:42.356Z,199.12
2023-03-16T13:46:42.271Z,199.03
2023-03-16T13:47:42.283Z,200.87
2023-03-16T13:48:42.328Z,201.69
2023-03-16T13:49:42.357Z,200.12
2023-03-16T13:50:42.410Z,201.63
2023-03-16T13:51:41.434Z,203.20
2023-03-16T13:52:41.468Z,205.12
2023-03-16T13:53:42.569Z,202.68
2023-03-16T13:54:42.557Z,200.22
2023-03-16T13:55:42.581Z,204.55
2023-03-16T13:56:42.615Z,205.80
2023-03-16T13:57:42.680Z,203.03
2023-03-16T13:58:42.734Z,202.35
2023-03-16T13:59:42.746Z,206.67
2023-03-16T14:00:42.792Z,207.78
2023-03-16T14:01:42.884Z,207.78
2023-03-16T14:02:42.959Z,205.31
2023-03-16T14:03:42.990Z,204.79
2023-03-16T14:04:43.521Z,203.21
2023-03-16T14:05:43.028Z,206.44
2023-03-16T14:06:43.052Z,207.28
2023-03-16T14:07:43.102Z,204.79
2023-03-16T14:08:43.155Z,209.76
2023-03-16T14:09:43.216Z,209.30
2023-03-16T14:10:42.244Z,208.68
2023-03-16T14:11:43.282Z,204.21
2023-03-16T14:12:43.330Z,208.65
2023-03-16T14:13:42.369Z,208.43
2023-03-16T14:14:43.419Z,209.41
2023-03-16T14:15:43.466Z,211.70
2023-03-16T14:16:43.512Z,207.17
2023-03-16T14:17:43.576Z,208.89
2023-03-16T14:18:43.634Z,207.26
2023-03-16T14:19:43.649Z,210.63
2023-03-16T14:20:43.698Z,210.60
2023-03-16T14:21:43.755Z,210.09
2023-03-16T14:22:43.810Z,210.57
2023-03-16T14:23:43.857Z,210.84
2023-03-16T14:27:44.032Z,215.74
2023-03-16T14:33:43.310Z,215.13
2023-03-16T14:38:44.506Z,217.87
2023-03-16T14:39:44.597Z,215.60
2023-03-16T14:51:44.201Z,216.28
2023-03-16T14:53:44.299Z,222.10
2023-03-16T14:54:45.373Z,217.99
2023-03-16T14:55:45.410Z,220.70
2023-03-16T14:58:45.595Z,221.22
2023-03-16T15:55:48.516Z,232.28
2023-03-16T15:56:54.278Z,229.58
2023-03-16T15:57:48.554Z,229.92
2023-03-16T15:58:48.528Z,230.90
2023-03-16T15:59:48.534Z,231.14
2023-03-16T16:00:48.670Z,231.14
2023-03-16T16:01:48.571Z,231.66
2023-03-16T16:04:48.515Z,232.40
2023-03-16T16:30:54.828Z,235.73
2023-03-16T16:31:48.397Z,236.24
2023-03-16T16:32:48.359Z,236.59
2023-03-16T16:33:47.290Z,236.91
2023-03-16T16:35:01.907Z,237.00
2023-03-16T16:35:48.421Z,236.18
2023-03-16T16:36:48.279Z,237.07
2023-03-16T16:37:47.291Z,236.91
2023-03-16T16:38:48.267Z,238.02
2023-03-16T16:39:48.252Z,238.51
2023-03-16T16:40:48.240Z,235.99
2023-03-16T16:41:47.233Z,236.48
2023-03-16T16:42:48.236Z,231.43
2023-03-16T16:43:47.219Z,236.09
2023-03-16T16:44:48.235Z,234.58
2023-03-16T16:45:48.309Z,237.78
2023-03-16T16:46:48.207Z,233.36
2023-03-16T16:47:48.198Z,233.19
2023-03-16T16:48:48.228Z,234.36
2023-03-16T16:49:47.184Z,230.91
2023-03-16T16:50:48.195Z,235.32
2023-03-16T16:51:48.193Z,232.16
2023-03-16T16:52:47.175Z,235.08
2023-03-16T16:53:47.185Z,231.29
2023-03-16T16:54:48.160Z,230.36
2023-03-16T16:55:48.150Z,234.91
2023-03-16T16:56:48.149Z,233.31
2023-03-16T16:57:48.150Z,233.70
2023-03-16T16:58:48.152Z,233.18
2023-03-16T16:59:47.122Z,235.65
2023-03-16T17:00:47.145Z,233.76
2023-03-16T17:01:48.110Z,232.99
2023-03-16T17:02:48.119Z,234.03
2023-03-16T17:03:47.088Z,229.48
2023-03-16T17:04:48.208Z,232.94
2023-03-16T17:05:48.086Z,230.88
2023-03-16T17:06:48.090Z,232.48
2023-03-16T17:07:48.095Z,231.91
2023-03-16T17:08:48.076Z,233.79
2023-03-16T17:09:48.066Z,231.71
2023-03-16T17:10:48.048Z,230.81
2023-03-16T17:11:47.053Z,232.68
2023-03-16T17:12:48.043Z,233.24
2023-03-16T17:13:48.027Z,233.24
2023-03-16T17:14:48.043Z,228.41
2023-03-16T17:15:48.032Z,231.44
2023-03-16T17:16:48.113Z,233.04
2023-03-16T17:17:48.005Z,231.23
2023-03-16T17:18:48.010Z,229.83
2023-03-16T17:19:47.990Z,231.67
2023-03-16T17:20:47.017Z,229.87
2023-03-16T17:21:47.986Z,232.79
2023-03-16T17:22:47.985Z,232.48
2023-03-16T17:23:47.971Z,230.67
2023-03-16T17:24:46.966Z,231.15
2023-03-16T17:25:47.957Z,231.68
2023-03-16T17:26:47.967Z,230.12
2023-03-16T17:27:47.992Z,232.24
2023-03-16T17:28:47.969Z,229.10
2023-03-16T17:29:47.021Z,230.81
2023-03-16T17:30:48.137Z,230.11
2023-03-16T17:31:48.116Z,231.19
2023-03-16T17:32:48.169Z,228.43
2023-03-16T17:33:48.189Z,233.57
2023-03-16T17:34:48.261Z,230.83
2023-03-16T17:35:48.368Z,228.57
2023-03-16T17:36:48.340Z,228.27
2023-03-16T17:37:47.384Z,227.76
2023-03-16T17:38:48.426Z,229.11
2023-03-16T17:39:48.501Z,228.27
2023-03-16T17:40:48.526Z,227.22
2023-03-16T17:41:48.585Z,230.23
2023-03-16T17:42:48.619Z,228.19
2023-03-16T17:43:47.684Z,232.14
2023-03-16T17:44:48.765Z,228.78
2023-03-16T17:45:47.798Z,228.72
2023-03-16T17:46:48.897Z,228.24
2023-03-16T17:47:48.883Z,227.00
2023-03-16T17:48:48.945Z,228.40
2023-03-16T17:49:49.231Z,228.06
2023-03-16T17:50:49.029Z,225.57
2023-03-16T17:51:48.126Z,228.16
2023-03-16T17:52:49.133Z,228.66
2023-03-16T17:53:49.200Z,228.35
2023-03-16T17:54:49.281Z,228.75
2023-03-16T17:55:49.290Z,227.27
2023-03-16T17:56:49.355Z,224.24
2023-03-16T17:57:48.397Z,225.77
2023-03-16T17:58:49.994Z,228.15
2023-03-16T17:59:48.503Z,227.03
2023-03-16T18:00:49.594Z,224.28
2023-03-16T18:01:49.720Z,228.60
2023-03-16T18:02:49.691Z,223.90
2023-03-16T18:03:49.774Z,224.85
2023-03-16T18:04:49.799Z,224.22
2023-03-16T18:05:49.848Z,226.33
2023-03-16T18:06:49.952Z,227.00
2023-03-16T18:07:49.951Z,223.96
2023-03-16T18:08:50.010Z,223.74
2023-03-16T18:09:50.065Z,225.23
2023-03-16T18:10:50.142Z,223.62
2023-03-16T18:11:50.177Z,222.34
2023-03-16T18:12:50.243Z,223.80
2023-03-16T18:13:50.317Z,223.00
2023-03-16T18:14:50.351Z,226.02
2023-03-16T18:15:50.488Z,225.57
2023-03-16T18:16:49.489Z,226.23
2023-03-16T18:17:50.535Z,223.89
2023-03-16T18:18:50.614Z,221.76
2023-03-16T18:19:49.661Z,222.58
2023-03-16T18:20:50.741Z,223.59
2023-03-16T18:21:50.788Z,222.84
2023-03-16T18:22:50.918Z,225.45
2023-03-16T18:23:49.920Z,225.05
2023-03-16T18:24:50.980Z,226.88
2023-03-16T18:25:51.070Z,223.69
2023-03-16T18:26:51.115Z,223.69
2023-03-16T18:27:50.233Z,220.81
2023-03-16T18:28:51.243Z,222.86
2023-03-16T18:29:51.304Z,221.41
2023-03-16T18:30:51.380Z,223.45
2023-03-16T18:31:51.466Z,222.72
2023-03-16T18:32:51.575Z,223.89
2023-03-16T18:33:51.597Z,220.79
2023-03-16T18:34:51.670Z,219.20
2023-03-16T18:35:50.723Z,222.98
2023-03-16T18:36:51.751Z,221.94
2023-03-16T18:37:51.829Z,222.30
2023-03-16T18:38:51.904Z,222.16
2023-03-16T18:39:50.959Z,221.61
2023-03-16T18:40:51.018Z,224.01
2023-03-16T18:41:52.145Z,221.15
2023-03-16T18:42:52.137Z,221.27
2023-03-16T18:43:52.194Z,222.89
2023-03-16T18:44:52.257Z,222.25
2023-03-16T18:45:54.748Z,226.31
2023-03-16T18:46:51.363Z,225.57
2023-03-16T18:47:52.318Z,225.18
2023-03-16T18:48:52.298Z,224.08
2023-03-16T18:49:51.300Z,220.78
2023-03-16T18:50:52.297Z,222.70
2023-03-16T18:51:52.299Z,221.54
2023-03-16T18:52:51.273Z,223.07
2023-03-16T18:53:52.299Z,224.84
2023-03-16T18:54:51.286Z,219.79
2023-03-16T18:55:52.261Z,222.54
2023-03-16T18:56:52.244Z,221.91
2023-03-16T18:57:52.246Z,220.38
2023-03-16T18:58:52.235Z,221.33
2023-03-16T18:59:51.232Z,222.90
2023-03-16T19:00:51.252Z,219.43
2023-03-16T19:01:51.262Z,222.00
2023-03-16T19:02:52.194Z,219.65
2023-03-16T19:03:52.199Z,221.00
2023-03-16T19:04:52.192Z,223.16
2023-03-16T19:05:51.198Z,217.85
2023-03-16T19:06:52.176Z,224.96
2023-03-16T19:07:52.171Z,220.40
2023-03-16T19:08:52.172Z,217.93
2023-03-16T19:09:52.192Z,220.05
2023-03-16T19:10:52.190Z,220.53
2023-03-16T19:11:51.157Z,224.68
2023-03-16T19:12:52.148Z,220.67
2023-03-16T19:13:53.124Z,218.75
2023-03-16T19:14:52.134Z,224.38
2023-03-16T19:15:52.146Z,224.83
2023-03-16T19:16:52.135Z,224.09
2023-03-16T19:17:51.130Z,219.45
2023-03-16T19:18:52.115Z,221.79
2023-03-16T19:19:51.102Z,223.63
2023-03-16T19:20:52.106Z,217.09
2023-03-16T19:21:52.081Z,219.56
2023-03-16T19:22:52.096Z,220.75
2023-03-16T19:23:52.069Z,221.30
2023-03-16T19:24:52.092Z,219.73
2023-03-16T19:25:51.046Z,220.96
2023-03-16T19:26:52.072Z,217.94
2023-03-16T19:27:52.032Z,221.57
2023-03-16T19:28:52.044Z,219.03
2023-03-16T19:29:52.409Z,221.52
2023-03-16T19:30:52.024Z,218.08
2023-03-16T19:31:52.186Z,221.11
2023-03-16T19:32:52.043Z,218.05
2023-03-16T19:33:51.991Z,218.56
2023-03-16T19:34:51.988Z,220.24
2023-03-16T19:35:52.549Z,218.16
2023-03-16T19:36:51.987Z,219.50
2023-03-16T19:37:51.959Z,220.32
2023-03-16T19:38:51.968Z,219.84
2023-03-16T19:39:51.963Z,215.69
2023-03-16T19:40:51.946Z,219.08
2023-03-16T19:41:51.941Z,218.19
2023-03-16T19:42:51.960Z,223.48
2023-03-16T19:43:51.916Z,220.71
2023-03-16T19:44:50.935Z,221.89
2023-03-16T19:45:51.011Z,220.59
2023-03-16T19:46:51.937Z,220.78
2023-03-16T19:47:51.949Z,220.37
2023-03-16T19:48:51.895Z,218.31
2023-03-16T19:49:51.899Z,221.85
2023-03-16T19:50:51.883Z,218.67
2023-03-16T19:51:51.872Z,221.41
2023-03-16T19:52:51.877Z,218.49
2023-03-16T19:53:51.897Z,218.72
2023-03-16T19:54:51.843Z,217.91
2023-03-16T19:55:51.914Z,217.24
2023-03-16T19:56:51.840Z,217.05
2023-03-16T19:57:51.834Z,222.07
2023-03-16T19:58:51.878Z,217.50
2023-03-16T19:59:50.823Z,218.23
2023-03-16T20:00:51.893Z,219.53
2023-03-16T20:01:51.803Z,217.65
2023-03-16T20:02:51.791Z,220.10
2023-03-16T20:03:51.858Z,221.77
2023-03-16T20:04:50.768Z,217.97
2023-03-16T20:05:50.763Z,216.31
2023-03-16T20:06:50.783Z,219.57
2023-03-16T20:07:51.764Z,218.41
2023-03-16T20:08:51.764Z,218.59
2023-03-16T20:09:50.780Z,217.26
2023-03-16T20:10:51.730Z,216.48
2023-03-16T20:11:51.756Z,217.78
2023-03-16T20:12:51.715Z,218.00
2023-03-16T20:13:50.728Z,214.67
2023-03-16T20:14:51.740Z,217.20
2023-03-16T20:15:51.690Z,217.70
2023-03-16T20:16:51.806Z,219.87
2023-03-16T20:17:51.692Z,216.95
2023-03-16T20:18:51.677Z,215.36
2023-03-16T20:19:51.665Z,217.67
2023-03-16T20:20:51.663Z,216.80
2023-03-16T20:21:51.685Z,216.82
2023-03-16T20:22:51.696Z,215.06
2023-03-16T20:23:51.715Z,219.40
2023-03-16T20:24:51.747Z,215.11
2023-03-16T20:25:50.763Z,217.75
2023-03-16T20:26:51.810Z,219.14
2023-03-16T20:27:51.811Z,217.35
2023-03-16T20:28:51.841Z,216.61
2023-03-16T20:29:50.868Z,218.51
2023-03-16T20:30:51.928Z,217.67
2023-03-16T20:31:51.912Z,215.92
2023-03-16T20:32:52.027Z,216.09
2023-03-16T20:33:50.957Z,217.90
2023-03-16T20:34:51.978Z,217.12
2023-03-16T20:35:52.014Z,214.30
2023-03-16T20:36:52.064Z,215.64
2023-03-16T20:37:51.051Z,216.38
2023-03-16T20:38:52.090Z,216.76
2023-03-16T20:39:51.115Z,216.45
2023-03-16T20:40:51.188Z,218.09
2023-03-16T20:41:52.182Z,216.06
2023-03-16T20:42:52.222Z,215.99
2023-03-16T20:43:52.197Z,213.95
2023-03-16T20:44:52.240Z,215.73
2023-03-16T20:45:52.319Z,216.50
2023-03-16T20:46:52.316Z,214.70
2023-03-16T20:47:51.301Z,214.96
2023-03-16T20:48:51.314Z,216.19
2023-03-16T20:49:51.349Z,214.29
2023-03-16T20:50:52.381Z,212.24
2023-03-16T20:51:52.425Z,216.85
2023-03-16T20:52:51.441Z,215.89
2023-03-16T20:53:52.469Z,214.90
2023-03-16T20:54:52.511Z,214.63
2023-03-16T20:55:52.627Z,214.98
2023-03-16T20:56:51.580Z,216.97
2023-03-16T20:57:52.600Z,215.56
2023-03-16T20:58:52.655Z,213.32
2023-03-16T20:59:51.672Z,214.66
2023-03-16T21:00:52.696Z,217.09
2023-03-16T21:01:52.774Z,212.08
2023-03-16T21:02:52.790Z,213.16
2023-03-16T21:03:52.789Z,212.41
2023-03-16T21:04:53.040Z,211.84
2023-03-16T21:05:51.875Z,213.09
2023-03-16T21:06:51.920Z,212.80
2023-03-16T21:07:52.962Z,215.25
2023-03-16T21:08:52.013Z,213.75
2023-03-16T21:09:53.081Z,214.77
2023-03-16T21:10:52.066Z,212.32
2023-03-16T21:11:53.122Z,216.20
2023-03-16T21:12:52.153Z,214.44
2023-03-16T21:13:53.199Z,212.11
2023-03-16T21:14:53.231Z,212.82
2023-03-16T21:15:53.336Z,211.77
2023-03-16T21:16:53.322Z,212.64
2023-03-16T21:17:53.363Z,212.77
2023-03-16T21:18:52.457Z,211.44
2023-03-16T21:19:53.477Z,213.41
2023-03-16T21:20:53.501Z,212.75
2023-03-16T21:21:53.537Z,214.05
2023-03-16T21:22:53.592Z,212.22
2023-03-16T21:23:53.644Z,211.02
2023-03-16T21:24:53.679Z,211.77
2023-03-16T21:25:53.757Z,207.94
2023-03-16T21:26:53.784Z,213.47
2023-03-16T21:27:53.837Z,212.52
2023-03-16T21:28:52.890Z,212.40
2023-03-16T21:29:53.931Z,210.87
2023-03-16T21:30:54.088Z,209.12
2023-03-16T21:31:53.061Z,208.89
2023-03-16T21:32:54.244Z,209.51
2023-03-16T21:33:54.183Z,210.73
2023-03-16T21:34:53.218Z,211.12
2023-03-16T21:35:53.387Z,205.58
2023-03-16T21:36:54.300Z,211.34
2023-03-16T21:37:54.359Z,210.26
2023-03-16T21:38:54.401Z,208.99
2023-03-16T21:39:54.450Z,211.74
2023-03-16T21:40:54.513Z,211.55
2023-03-16T21:41:54.594Z,208.00
2023-03-16T21:42:54.650Z,205.83
2023-03-16T21:43:54.672Z,207.08
2023-03-16T21:44:53.784Z,209.34
2023-03-16T21:45:54.792Z,207.37
2023-03-16T21:46:54.923Z,208.02
2023-03-16T21:47:54.897Z,202.60
2023-03-16T21:48:54.949Z,202.92
2023-03-16T21:49:55.062Z,203.67
2023-03-16T21:50:55.058Z,201.18
2023-03-16T21:51:54.110Z,202.51
2023-03-16T21:52:54.152Z,200.28
2023-03-16T21:53:55.222Z,203.32
2023-03-16T21:54:55.389Z,202.14
2023-03-16T21:55:55.293Z,202.93
2023-03-16T21:56:55.347Z,199.87
2023-03-16T21:57:55.362Z,200.94
2023-03-16T21:58:54.445Z,202.77
2023-03-16T21:59:55.469Z,200.23
2023-03-16T22:00:55.506Z,203.21
2023-03-16T22:02:01.910Z,199.51
2023-03-16T22:02:55.630Z,199.82
2023-03-16T22:03:55.508Z,200.77
2023-03-16T22:04:55.529Z,201.80
2023-03-16T22:05:54.537Z,200.58
2023-03-16T22:06:55.484Z,204.34
2023-03-16T22:07:55.480Z,201.77
2023-03-16T22:08:55.460Z,202.57
2023-03-16T22:09:54.461Z,201.50
2023-03-16T22:10:55.462Z,202.16
2023-03-16T22:11:55.470Z,201.98
2023-03-16T22:12:55.469Z,201.20
2023-03-16T22:13:55.491Z,201.29
2023-03-16T22:14:55.443Z,203.98
2023-03-16T22:15:55.480Z,201.38
2023-03-16T22:16:54.414Z,201.74
2023-03-16T22:17:55.439Z,198.82
2023-03-16T22:18:55.405Z,201.48
2023-03-16T22:19:55.398Z,201.57
2023-03-16T22:20:55.402Z,200.46
2023-03-16T22:21:55.466Z,202.85
2023-03-16T22:22:54.374Z,201.03
2023-03-16T22:23:55.375Z,199.47
2023-03-16T22:24:54.374Z,201.40